Time;durP1;ratioP1;P1;durP2;ratioP2;P2;SDS_P1;SDS_P2;PMS_P1;PMS_P2;Temp;Humidity;BMP_temperature;BMP_pressure;BME280_temperature;BME280_humidity;BME280_pressure;Samples;Min_cycle;Max_cycle;Signal;HPM_P1;HPM_P2
2022/01/12 00:00:22;;;;;;;11.40;9.93;;;;;;;1.81;73.70;102275.22;4954398;29;20440;-78
2022/01/12 00:02:48;;;;;;;10.93;9.38;;;;;;;1.82;73.69;102284.09;4953672;28;20402;-78
2022/01/12 00:05:16;;;;;;;11.23;9.67;;;;;;;1.80;73.70;102280.75;4954332;29;20414;-79
2022/01/12 00:07:41;;;;;;;12.13;9.27;;;;;;;1.77;73.87;102278.34;4955248;29;20425;-78
2022/01/12 00:10:07;;;;;;;10.63;8.70;;;;;;;1.73;74.18;102279.63;4955115;29;20437;-78
2022/01/12 00:12:33;;;;;;;10.90;9.47;;;;;;;1.75;74.01;102281.16;4943692;29;20486;-78
2022/01/12 00:14:58;;;;;;;12.40;9.30;;;;;;;1.76;73.83;102285.53;4952510;29;20418;-79
2022/01/12 00:17:24;;;;;;;11.77;9.40;;;;;;;1.77;73.66;102286.38;4955060;29;20521;-79
2022/01/12 00:19:49;;;;;;;10.53;9.17;;;;;;;1.74;73.69;102284.00;4954975;29;20397;-79
2022/01/12 00:22:15;;;;;;;12.47;9.87;;;;;;;1.70;74.15;102277.25;4955018;29;20443;-78
2022/01/12 00:25:28;;;;;;;12.32;10.55;;;;;;;1.70;73.97;102282.59;4938878;29;20775;-79
2022/01/12 00:33:10;;;;;;;13.25;9.93;;;;;;;1.59;74.26;102275.56;4953712;29;20449;-79
2022/01/12 00:35:39;;;;;;;12.10;10.05;;;;;;;1.57;74.73;102272.19;4944121;29;20432;-78
2022/01/12 00:38:05;;;;;;;12.80;10.05;;;;;;;1.56;74.50;102276.69;4936961;29;20433;-79
2022/01/12 00:40:31;;;;;;;12.02;9.77;;;;;;;1.55;75.10;102277.66;4950652;29;20889;-78
2022/01/12 00:42:56;;;;;;;11.80;9.52;;;;;;;1.59;75.12;102275.56;4954562;29;20409;-78
2022/01/12 00:45:21;;;;;;;10.03;8.90;;;;;;;1.57;75.10;102272.19;4954345;29;20796;-79
2022/01/12 00:47:47;;;;;;;10.30;9.10;;;;;;;1.54;75.42;102275.16;4954417;29;20466;-79
2022/01/12 00:50:13;;;;;;;10.87;9.77;;;;;;;1.48;75.32;102278.41;4948481;29;20427;-78
2022/01/12 00:52:38;;;;;;;10.80;8.63;;;;;;;1.43;75.58;102281.47;4954337;29;20749;-79
2022/01/12 00:55:04;;;;;;;10.53;8.87;;;;;;;1.40;75.58;102276.44;4951714;29;20448;-78
2022/01/12 00:57:31;;;;;;;9.55;8.43;;;;;;;1.37;75.39;102273.19;4954517;29;20492;-79
2022/01/12 00:59:56;;;;;;;10.90;8.47;;;;;;;1.28;75.53;102274.03;4952108;29;20487;-79
2022/01/12 01:02:21;;;;;;;9.50;8.40;;;;;;;1.21;75.70;102267.56;4954153;29;20409;-79
2022/01/12 01:04:47;;;;;;;11.30;8.40;;;;;;;1.09;75.81;102277.53;4954152;29;20864;-78
2022/01/12 01:07:12;;;;;;;9.30;8.30;;;;;;;0.96;76.30;102282.28;4954720;29;20457;-78
2022/01/12 01:09:43;;;;;;;9.23;8.15;;;;;;;0.90;76.17;102270.34;4953397;29;20406;-78
2022/01/12 01:12:08;;;;;;;11.50;8.82;;;;;;;0.98;75.53;102275.00;4953351;29;20398;-78
2022/01/12 01:14:46;;;;;;;10.75;8.40;;;;;;;1.02;75.50;102269.22;4946425;28;20913;-78
2022/01/12 01:25:31;;;;;;;9.07;7.70;;;;;;;0.76;76.18;102272.59;4954270;29;20454;-78
2022/01/12 01:27:56;;;;;;;11.02;8.40;;;;;;;0.69;76.57;102290.13;4953960;29;20758;-78
2022/01/12 01:30:22;;;;;;;10.10;8.27;;;;;;;0.71;76.98;102297.00;4951310;29;20410;-78
2022/01/12 01:32:48;;;;;;;13.57;8.93;;;;;;;0.70;77.05;102300.63;4953123;29;20904;-78
2022/01/12 01:35:14;;;;;;;13.50;8.93;;;;;;;0.74;76.81;102303.88;4953580;29;20885;-78
2022/01/12 01:37:41;;;;;;;10.55;8.63;;;;;;;0.77;77.05;102307.13;4953146;29;20484;-78
2022/01/12 01:40:11;;;;;;;10.70;8.40;;;;;;;0.78;76.87;102316.81;4952507;29;20410;-78
2022/01/12 01:43:06;;;;;;;11.57;8.95;;;;;;;0.75;76.70;102321.59;4953105;29;20417;-78
2022/01/12 01:53:40;;;;;;;12.63;9.18;;;;;;;0.71;77.33;102322.81;4938975;29;20396;-79
2022/01/12 01:56:06;;;;;;;10.90;9.18;;;;;;;0.73;77.77;102319.03;4952479;29;20816;-78
2022/01/12 01:58:32;;;;;;;12.65;8.90;;;;;;;0.74;77.62;102314.56;4953263;29;20406;-78
2022/01/12 02:00:57;;;;;;;12.20;9.17;;;;;;;0.77;77.40;102319.63;4952352;29;20546;-77
2022/01/12 02:03:29;;;;;;;10.98;9.25;;;;;;;0.78;77.31;102322.16;4952632;29;21692;-78
2022/01/12 02:05:56;;;;;;;10.60;8.75;;;;;;;0.62;77.91;102308.50;4953612;29;20402;-78
2022/01/12 02:08:21;;;;;;;13.80;9.45;;;;;;;0.68;77.79;102302.59;4936182;29;20406;-78
2022/01/12 02:10:46;;;;;;;10.43;8.67;;;;;;;0.72;77.81;102306.69;4950907;29;20420;-78
2022/01/12 02:13:12;;;;;;;12.02;9.52;;;;;;;0.73;77.58;102302.19;4935992;29;20413;-78
2022/01/12 02:15:39;;;;;;;10.80;8.67;;;;;;;0.68;77.39;102305.28;4953018;29;20473;-78
2022/01/12 02:18:30;;;;;;;11.70;9.35;;;;;;;0.55;77.79;102296.66;4953243;29;20401;-77
2022/01/12 02:40:25;;;;;;;11.07;8.93;;;;;;;0.51;78.46;102316.59;4953983;29;20468;-78
2022/01/12 02:43:07;;;;;;;11.05;9.00;;;;;;;0.52;77.88;102312.94;4956936;29;20402;-78
2022/01/12 02:53:43;;;;;;;12.50;9.60;;;;;;;0.45;78.25;102309.97;4954377;29;20439;-78
2022/01/12 02:56:11;;;;;;;14.55;9.98;;;;;;;0.47;78.57;102326.66;4956173;29;20461;-78
2022/01/12 02:58:38;;;;;;;12.15;9.20;;;;;;;0.45;78.37;102315.31;4953216;29;20828;-78
2022/01/12 03:03:51;;;;;;;16.55;9.73;;;;;;;0.41;78.57;102326.38;4956445;29;20413;-78
2022/01/12 03:06:20;;;;;;;14.85;9.48;;;;;;;0.41;78.49;102331.69;4954671;29;20406;-77
2022/01/12 03:08:46;;;;;;;10.83;9.47;;;;;;;0.40;77.97;102316.66;4949425;29;20508;-78
2022/01/12 03:11:17;;;;;;;13.88;9.32;;;;;;;0.34;78.29;102310.06;4948099;29;20421;-78
2022/01/12 03:13:44;;;;;;;13.65;9.90;;;;;;;0.37;78.47;102315.13;4956148;29;20870;-77
2022/01/12 03:16:14;;;;;;;12.82;9.82;;;;;;;0.37;78.65;102322.25;4956200;29;20422;-77
2022/01/12 03:18:44;;;;;;;12.90;10.45;;;;;;;0.36;78.73;102318.75;4944702;29;20467;-78
2022/01/12 03:21:11;;;;;;;12.65;10.18;;;;;;;0.36;78.44;102320.59;4953968;29;20401;-77
2022/01/12 03:23:36;;;;;;;12.95;10.13;;;;;;;0.31;78.88;102321.00;4952384;29;20747;-77
2022/01/12 03:26:03;;;;;;;12.70;9.68;;;;;;;0.26;78.70;102306.38;4955402;29;20414;-77
2022/01/12 03:28:29;;;;;;;14.27;9.80;;;;;;;0.21;78.71;102306.75;4955125;29;20418;-77
2022/01/12 03:30:58;;;;;;;12.63;9.73;;;;;;;0.19;79.02;102305.22;4955909;29;20421;-77
2022/01/12 03:38:49;;;;;;;13.20;9.10;;;;;;;0.29;78.58;102314.97;4950851;29;20939;-77
2022/01/12 03:41:16;;;;;;;11.68;8.50;;;;;;;0.25;78.51;102302.84;4953956;29;20528;-77
2022/01/12 03:43:41;;;;;;;12.32;9.48;;;;;;;0.25;77.96;102313.53;4947665;29;20799;-77
2022/01/12 03:46:07;;;;;;;11.67;8.97;;;;;;;0.21;78.67;102311.25;4955711;29;20453;-77
2022/01/12 03:48:33;;;;;;;12.00;8.77;;;;;;;0.17;78.44;102317.81;4954434;29;20437;-77
2022/01/12 03:50:58;;;;;;;13.47;9.53;;;;;;;0.10;78.76;102309.50;4955534;29;20402;-77
2022/01/12 03:53:23;;;;;;;12.37;8.93;;;;;;;0.04;78.53;102317.19;4955460;29;20405;-76
2022/01/12 03:55:49;;;;;;;12.17;9.03;;;;;;;-0.19;79.08;102317.31;4954733;29;20426;-77
2022/01/12 03:58:15;;;;;;;13.02;9.90;;;;;;;-0.24;79.51;102321.38;4949993;29;20474;-77
2022/01/12 04:00:41;;;;;;;12.73;9.47;;;;;;;-0.17;79.65;102322.53;4955367;29;20408;-77
2022/01/12 04:03:07;;;;;;;11.33;9.00;;;;;;;-0.12;79.52;102312.31;4954392;29;20401;-77
2022/01/12 04:08:19;;;;;;;11.82;9.32;;;;;;;-0.02;79.17;102307.91;4944549;29;20454;-77
2022/01/12 04:10:45;;;;;;;16.92;12.13;;;;;;;-0.02;79.67;102327.41;4933929;29;20448;-78
2022/01/12 04:13:11;;;;;;;17.20;13.25;;;;;;;-0.04;79.85;102326.69;4937836;29;20907;-78
2022/01/12 04:15:36;;;;;;;17.55;11.93;;;;;;;0.02;79.81;102337.81;4955096;29;20432;-77
2022/01/12 04:18:01;;;;;;;13.17;10.30;;;;;;;0.03;79.53;102337.69;4936234;29;20420;-77
2022/01/12 04:20:28;;;;;;;14.83;10.93;;;;;;;0.02;79.49;102327.97;4955057;29;20429;-77
2022/01/12 04:25:37;;;;;;;14.60;11.50;;;;;;;-0.08;80.10;102317.28;4955376;29;20496;-77
2022/01/12 04:28:03;;;;;;;15.07;10.90;;;;;;;-0.11;80.50;102314.88;4954026;29;20413;-77
2022/01/12 04:30:28;;;;;;;15.57;10.90;;;;;;;-0.14;80.03;102307.13;4954696;29;20765;-78
2022/01/12 04:32:53;;;;;;;13.67;10.77;;;;;;;-0.10;80.09;102313.88;4954750;29;20409;-77
2022/01/12 04:35:24;;;;;;;14.98;11.07;;;;;;;-0.10;79.81;102331.72;4954691;29;20414;-78
2022/01/12 04:37:50;;;;;;;17.58;11.20;;;;;;;-0.06;79.99;102339.28;4952332;29;20489;-77
2022/01/12 04:40:16;;;;;;;14.57;11.25;;;;;;;-0.02;79.71;102339.88;4954747;29;20402;-77
2022/01/12 04:42:41;;;;;;;18.30;11.07;;;;;;;-0.08;79.91;102351.91;4942190;29;20410;-78
2022/01/12 04:50:41;;;;;;;15.60;11.25;;;;;;;0.04;79.76;102365.16;4939705;29;20845;-77
2022/01/12 04:53:07;;;;;;;16.05;11.75;;;;;;;0.06;79.86;102382.72;4947537;29;20434;-77
2022/01/12 04:55:32;;;;;;;16.70;12.15;;;;;;;0.05;79.31;102382.84;4954170;29;20460;-77
2022/01/12 04:57:58;;;;;;;17.08;12.18;;;;;;;0.06;79.39;102382.72;4953459;29;20432;-77
2022/01/12 05:00:25;;;;;;;15.60;11.50;;;;;;;-0.03;79.66;102388.81;4954275;29;20885;-77
2022/01/12 05:13:57;;;;;;;20.37;13.67;;;;;;;-0.08;79.79;102372.38;4954166;29;20900;-77
2022/01/12 05:16:23;;;;;;;21.70;14.38;;;;;;;-0.11;80.27;102375.31;4953949;29;21482;-77
2022/01/12 05:18:50;;;;;;;23.23;14.00;;;;;;;-0.11;80.22;102375.31;4954028;29;20394;-77
2022/01/12 05:21:17;;;;;;;31.35;18.60;;;;;;;-0.13;79.71;102370.09;4952519;29;20478;-77
2022/01/12 05:23:43;;;;;;;35.20;19.20;;;;;;;-0.14;80.12;102376.41;4953153;29;20775;-77
2022/01/12 05:26:09;;;;;;;23.27;15.88;;;;;;;-0.10;80.50;102396.47;4952812;29;20419;-77
2022/01/12 05:28:38;;;;;;;20.67;14.60;;;;;;;-0.05;80.18;102399.63;4953637;29;20409;-77
2022/01/12 05:31:03;;;;;;;16.95;12.82;;;;;;;-0.06;79.74;102405.91;4948015;29;20409;-77
2022/01/12 05:33:29;;;;;;;18.75;13.23;;;;;;;-0.13;80.24;102418.06;4936911;29;20453;-77
2022/01/12 05:35:57;;;;;;;18.80;12.93;;;;;;;-0.18;80.39;102395.44;4953717;29;20751;-77
2022/01/12 05:38:24;;;;;;;16.50;13.13;;;;;;;-0.18;80.24;102408.78;4953661;29;20397;-77
2022/01/12 05:40:53;;;;;;;18.93;12.37;;;;;;;-0.23;80.50;102416.31;4953794;29;20753;-77
2022/01/12 05:43:24;;;;;;;18.45;13.82;;;;;;;-0.25;80.29;102411.09;4951979;29;20464;-78
2022/01/12 05:45:50;;;;;;;16.70;12.23;;;;;;;-0.24;80.67;102417.28;4946601;29;21071;-78
2022/01/12 05:50:41;;;;;;;16.10;12.90;;;;;;;-0.30;80.88;102399.13;4953871;29;20409;-77
2022/01/12 05:53:07;;;;;;;18.63;13.17;;;;;;;-0.25;80.16;102407.59;4950283;29;20421;-77
2022/01/12 05:55:33;;;;;;;19.07;13.97;;;;;;;-0.28;80.33;102411.34;4953244;29;20429;-77
2022/01/12 05:57:59;;;;;;;24.00;14.40;;;;;;;-0.31;80.23;102398.28;4953577;29;20398;-77
2022/01/12 06:00:26;;;;;;;20.40;13.25;;;;;;;-0.36;80.96;102403.13;4936236;28;20928;-77
2022/01/12 06:02:52;;;;;;;17.25;12.55;;;;;;;-0.39;80.82;102400.72;4958458;29;20843;-77
2022/01/12 06:05:19;;;;;;;18.33;13.10;;;;;;;-0.44;80.98;102400.28;4958129;29;20460;-77
2022/01/12 06:07:49;;;;;;;17.58;12.13;;;;;;;-0.39;81.24;102398.06;4959828;29;20396;-78
2022/01/12 06:10:16;;;;;;;16.58;12.48;;;;;;;-0.40;80.78;102399.06;4959662;28;20862;-78
2022/01/12 06:12:42;;;;;;;16.23;12.35;;;;;;;-0.38;80.81;102406.91;4957007;29;20516;-78
2022/01/12 06:15:08;;;;;;;22.00;13.83;;;;;;;-0.36;81.14;102402.31;4959733;29;20489;-77
2022/01/12 06:17:34;;;;;;;22.92;15.23;;;;;;;-0.34;81.37;102403.88;4959930;28;20828;-77
2022/01/12 06:20:00;;;;;;;16.53;13.37;;;;;;;-0.26;81.34;102397.88;4959840;29;20508;-77
2022/01/12 06:22:25;;;;;;;17.63;13.00;;;;;;;-0.26;81.21;102398.75;4957255;28;20416;-77
2022/01/12 06:24:51;;;;;;;18.33;13.23;;;;;;;-0.31;81.09;102392.97;4942491;28;20437;-77
2022/01/12 06:27:17;;;;;;;16.67;12.50;;;;;;;-0.27;81.18;102388.22;4942367;29;20790;-77
2022/01/12 06:29:49;;;;;;;19.00;13.40;;;;;;;-0.27;80.74;102386.41;4959738;28;20402;-77
2022/01/12 06:32:15;;;;;;;17.95;13.15;;;;;;;-0.27;80.68;102394.41;4958909;28;20471;-77
2022/01/12 06:34:42;;;;;;;17.67;13.10;;;;;;;-0.26;80.48;102393.41;4957098;29;20452;-77
2022/01/12 06:37:08;;;;;;;19.33;14.10;;;;;;;-0.29;80.31;102391.00;4946783;29;20911;-77
2022/01/12 06:39:33;;;;;;;17.73;13.07;;;;;;;-0.29;80.46;102393.66;4942196;28;20402;-77
2022/01/12 06:41:59;;;;;;;18.00;12.97;;;;;;;-0.29;80.41;102401.66;4956062;28;20421;-76
2022/01/12 06:44:25;;;;;;;18.55;13.32;;;;;;;-0.31;80.14;102397.44;4956342;29;20881;-77
2022/01/12 06:46:52;;;;;;;18.67;13.33;;;;;;;-0.29;80.29;102395.47;4959496;29;20402;-77
2022/01/12 06:49:18;;;;;;;27.50;18.58;;;;;;;-0.35;80.50;102390.66;4959727;29;20407;-77
2022/01/12 06:51:45;;;;;;;27.67;19.52;;;;;;;-0.30;80.88;102386.66;4955576;28;20488;-77
2022/01/12 06:54:12;;;;;;;24.02;16.88;;;;;;;-0.35;80.48;102385.34;4957604;28;20417;-77
2022/01/12 06:56:38;;;;;;;25.73;17.65;;;;;;;-0.37;80.11;102403.28;4959218;28;20440;-77
2022/01/12 06:59:04;;;;;;;19.23;14.20;;;;;;;-0.45;80.65;102390.59;4959658;29;20877;-77
2022/01/12 07:01:30;;;;;;;20.35;13.65;;;;;;;-0.44;80.38;102394.94;4958544;28;20407;-77
2022/01/12 07:03:55;;;;;;;16.37;13.03;;;;;;;-0.49;80.85;102404.31;4959450;29;20480;-77
2022/01/12 07:06:21;;;;;;;16.40;12.63;;;;;;;-0.49;81.01;102401.63;4956961;28;20416;-77
2022/01/12 07:08:46;;;;;;;17.97;13.20;;;;;;;-0.52;80.57;102400.91;4947229;29;20405;-77
2022/01/12 07:11:12;;;;;;;17.63;13.53;;;;;;;-0.47;81.21;102413.84;4959633;28;20409;-77
2022/01/12 07:13:37;;;;;;;18.33;13.57;;;;;;;-0.44;81.19;102420.72;4924124;29;20890;-78
2022/01/12 07:16:03;;;;;;;18.00;13.70;;;;;;;-0.38;81.02;102430.88;4936018;29;20995;-77
2022/01/12 07:18:29;;;;;;;19.58;14.15;;;;;;;-0.30;80.42;102444.44;4951332;29;20425;-77
2022/01/12 07:20:58;;;;;;;20.50;14.47;;;;;;;-0.29;80.73;102456.75;4953050;29;20475;-77
2022/01/12 07:23:24;;;;;;;19.33;13.95;;;;;;;-0.30;80.58;102465.75;4956114;29;20405;-77
2022/01/12 07:25:50;;;;;;;19.17;14.32;;;;;;;-0.28;80.43;102474.44;4955520;29;20406;-77
2022/01/12 07:28:16;;;;;;;18.52;13.30;;;;;;;-0.23;79.96;102477.59;4956110;29;20508;-77
2022/01/12 07:30:41;;;;;;;23.37;14.57;;;;;;;-0.24;79.86;102475.91;4950456;28;20447;-77
2022/01/12 07:33:06;;;;;;;18.37;14.47;;;;;;;-0.22;79.66;102489.91;4960400;28;20494;-77
2022/01/12 07:35:32;;;;;;;22.38;15.68;;;;;;;-0.19;79.49;102495.00;4946706;28;20909;-77
2022/01/12 07:37:57;;;;;;;19.77;14.23;;;;;;;-0.16;79.67;102487.59;4955253;29;20505;-77
2022/01/12 07:40:23;;;;;;;19.10;14.17;;;;;;;-0.16;79.58;102492.06;4938475;29;20766;-77
2022/01/12 07:42:49;;;;;;;17.47;13.33;;;;;;;-0.12;79.27;102499.72;4938190;29;20826;-78
2022/01/12 07:45:14;;;;;;;16.60;13.85;;;;;;;-0.08;78.93;102498.50;4953092;29;20421;-76
2022/01/12 07:47:40;;;;;;;22.40;14.13;;;;;;;-0.12;79.26;102501.53;4947633;28;20506;-77
2022/01/12 07:50:06;;;;;;;16.45;14.13;;;;;;;-0.10;79.52;102495.09;4946652;29;20453;-77
2022/01/12 07:52:32;;;;;;;17.15;13.48;;;;;;;-0.04;78.62;102488.44;4938188;29;20912;-77
2022/01/12 07:54:58;;;;;;;18.17;14.15;;;;;;;-0.07;79.16;102489.50;4955430;29;20410;-77
2022/01/12 07:57:24;;;;;;;17.77;13.40;;;;;;;-0.06;78.60;102488.53;4955754;29;20408;-77
2022/01/12 07:59:49;;;;;;;20.50;14.50;;;;;;;-0.04;78.70;102489.28;4940582;28;20514;-77
2022/01/12 08:02:14;;;;;;;24.17;15.73;;;;;;;0.00;78.81;102487.22;4953454;29;20797;-77
2022/01/12 08:04:40;;;;;;;20.83;14.80;;;;;;;0.02;78.40;102500.38;4954846;28;20829;-77
2022/01/12 08:07:07;;;;;;;20.90;14.35;;;;;;;0.01;78.82;102504.88;4953833;29;20786;-77
2022/01/12 08:09:33;;;;;;;19.88;15.07;;;;;;;-0.02;78.55;102500.66;4955448;29;20955;-77
2022/01/12 08:11:58;;;;;;;20.83;14.70;;;;;;;0.04;78.82;102506.44;4953824;29;20425;-76
2022/01/12 08:14:24;;;;;;;20.52;14.18;;;;;;;0.06;78.66;102507.16;4954225;28;20741;-78
2022/01/12 08:16:49;;;;;;;20.17;14.20;;;;;;;0.15;78.60;102498.41;4936767;29;20459;-77
2022/01/12 08:19:19;;;;;;;20.20;14.33;;;;;;;0.19;78.67;102500.69;4955196;29;20413;-77
2022/01/12 08:21:45;;;;;;;19.67;14.95;;;;;;;0.18;78.49;102500.81;4954162;28;20446;-77
2022/01/12 08:24:12;;;;;;;19.73;14.03;;;;;;;0.19;78.21;102514.03;4937715;28;20835;-77
2022/01/12 08:26:38;;;;;;;16.58;14.00;;;;;;;0.31;77.81;102514.81;4951913;28;20500;-77
2022/01/12 08:29:03;;;;;;;28.05;14.32;;;;;;;0.34;77.65;102520.72;4954910;29;20537;-77
2022/01/12 08:31:29;;;;;;;20.10;14.52;;;;;;;0.39;77.33;102531.88;4953881;29;20880;-77
2022/01/12 08:33:55;;;;;;;19.08;15.38;;;;;;;0.48;77.48;102541.78;4960772;28;20398;-78
2022/01/12 08:36:20;;;;;;;18.63;14.65;;;;;;;0.61;77.92;102535.38;4955019;28;20438;-78
2022/01/12 08:38:45;;;;;;;18.53;13.83;;;;;;;0.67;77.91;102537.53;4954954;28;20624;-77
2022/01/12 08:41:10;;;;;;;19.80;14.67;;;;;;;0.91;76.92;102548.78;4958827;28;20417;-77
2022/01/12 08:43:36;;;;;;;17.27;14.07;;;;;;;1.04;75.77;102557.44;4960746;28;20402;-77
2022/01/12 08:46:01;;;;;;;17.58;14.77;;;;;;;1.20;75.52;102543.59;4951974;28;20460;-77
2022/01/12 08:48:26;;;;;;;19.10;15.00;;;;;;;1.40;74.45;102538.22;4953516;29;20405;-77
2022/01/12 08:50:52;;;;;;;18.37;14.47;;;;;;;1.45;73.57;102543.13;4944850;28;20964;-77
2022/01/12 08:53:17;;;;;;;17.57;14.43;;;;;;;1.73;73.32;102539.72;4948867;28;20518;-77
2022/01/12 08:55:43;;;;;;;19.40;14.90;;;;;;;2.05;71.63;102551.06;4946407;28;20795;-78
2022/01/12 08:58:08;;;;;;;21.67;15.55;;;;;;;1.82;72.32;102552.28;4951733;29;20414;-78
2022/01/12 09:00:34;;;;;;;21.27;15.77;;;;;;;1.69;72.85;102554.34;4926077;28;20413;-77
2022/01/12 09:03:01;;;;;;;23.73;15.40;;;;;;;1.85;72.28;102549.31;4953061;28;20421;-77
2022/01/12 09:05:27;;;;;;;17.80;14.27;;;;;;;2.17;70.76;102553.63;4947486;28;20448;-77
2022/01/12 09:07:53;;;;;;;19.20;14.60;;;;;;;1.81;71.50;102550.56;4954401;28;20405;-77
2022/01/12 09:10:18;;;;;;;20.23;15.80;;;;;;;2.36;70.74;102570.53;4953029;28;20412;-78
2022/01/12 09:12:44;;;;;;;21.13;15.57;;;;;;;2.49;69.43;102575.59;4945305;28;20427;-77
2022/01/12 09:15:13;;;;;;;18.33;14.03;;;;;;;2.14;70.89;102577.97;4946525;29;20433;-77
2022/01/12 09:17:38;;;;;;;17.77;14.48;;;;;;;2.21;71.21;102576.41;4959228;28;20427;-77
2022/01/12 09:20:06;;;;;;;19.00;13.60;;;;;;;2.62;70.06;102589.53;4922696;29;20410;-77
2022/01/12 09:22:31;;;;;;;19.63;13.60;;;;;;;2.78;69.22;102586.28;4952845;29;20778;-77
2022/01/12 09:24:57;;;;;;;17.95;13.10;;;;;;;2.69;69.12;102585.31;4952620;29;20429;-77
2022/01/12 09:27:22;;;;;;;14.97;12.10;;;;;;;2.65;69.69;102591.06;4953771;29;20408;-78
2022/01/12 09:29:47;;;;;;;15.27;11.83;;;;;;;2.84;69.43;102594.59;4953364;28;20413;-77
2022/01/12 09:32:13;;;;;;;15.65;12.38;;;;;;;3.13;68.89;102597.22;4952078;28;20413;-78
2022/01/12 09:34:39;;;;;;;13.35;11.88;;;;;;;3.44;68.10;102606.72;4950568;28;20424;-78
2022/01/12 09:37:04;;;;;;;13.70;11.40;;;;;;;3.80;65.49;102604.19;4953092;28;20773;-78
2022/01/12 09:39:30;;;;;;;13.37;11.97;;;;;;;3.60;65.48;102608.78;4953558;29;20478;-77
2022/01/12 09:41:57;;;;;;;13.77;12.00;;;;;;;3.11;66.82;102605.41;4948375;28;20442;-77
2022/01/12 09:44:37;;;;;;;13.15;11.30;;;;;;;2.93;67.18;102615.16;4950019;28;21183;-78
2022/01/12 09:47:05;;;;;;;13.07;11.77;;;;;;;2.64;68.10;102608.97;4950959;29;20426;-77
2022/01/12 09:49:31;;;;;;;13.83;11.37;;;;;;;2.46;69.05;102610.66;4953565;29;20401;-77
2022/01/12 09:51:58;;;;;;;13.57;10.82;;;;;;;2.81;68.38;102629.69;4934919;29;20828;-77
2022/01/12 09:54:25;;;;;;;13.52;11.48;;;;;;;3.38;66.45;102625.22;4953094;28;20413;-78
2022/01/12 09:56:52;;;;;;;16.98;15.20;;;;;;;3.62;65.94;102623.72;4953362;29;20477;-77
2022/01/12 09:59:17;;;;;;;15.52;12.65;;;;;;;3.52;65.60;102639.00;4953050;28;20473;-78
2022/01/12 10:01:47;;;;;;;15.57;14.03;;;;;;;3.43;66.51;102629.16;4951889;29;20504;-77
2022/01/12 10:04:18;;;;;;;21.83;19.83;;;;;;;3.58;66.69;102633.06;4951187;28;20437;-77
2022/01/12 10:06:50;;;;;;;15.18;13.57;;;;;;;4.07;65.67;102631.00;4931872;29;20410;-77
2022/01/12 10:09:17;;;;;;;12.02;10.73;;;;;;;4.26;63.73;102633.56;4946528;29;20915;-77
2022/01/12 10:11:50;;;;;;;14.60;13.20;;;;;;;4.83;62.41;102634.16;4944784;28;20426;-78
2022/01/12 10:14:16;;;;;;;12.98;11.70;;;;;;;5.12;60.74;102623.97;4948792;28;20916;-77
2022/01/12 10:16:56;;;;;;;13.23;11.82;;;;;;;5.07;60.48;102628.97;4952261;29;20508;-78
2022/01/12 10:19:30;;;;;;;12.07;10.85;;;;;;;4.67;61.59;102630.31;4952350;28;20410;-78
2022/01/12 10:21:56;;;;;;;13.95;11.88;;;;;;;4.19;63.15;102641.38;4953122;29;20731;-77
2022/01/12 10:24:22;;;;;;;14.48;11.25;;;;;;;4.06;63.81;102645.41;4952793;29;20402;-77
2022/01/12 10:26:49;;;;;;;13.07;11.47;;;;;;;4.00;63.80;102641.50;4952790;28;20414;-77
2022/01/12 10:29:17;;;;;;;11.82;10.63;;;;;;;3.99;63.59;102642.47;4949996;28;20464;-77
2022/01/12 10:31:54;;;;;;;13.13;11.18;;;;;;;4.04;63.38;102634.00;4948530;28;20428;-78
2022/01/12 10:34:23;;;;;;;14.90;11.50;;;;;;;3.93;63.70;102632.34;4953074;29;20475;-77
2022/01/12 10:36:50;;;;;;;11.57;10.25;;;;;;;3.64;64.03;102635.16;4955935;28;20897;-77
2022/01/12 10:39:17;;;;;;;11.63;10.43;;;;;;;3.42;65.37;102632.00;4951228;29;20433;-78
2022/01/12 10:41:54;;;;;;;13.23;10.75;;;;;;;3.30;65.75;102628.63;4927319;28;20411;-77
2022/01/12 10:44:22;;;;;;;11.93;10.70;;;;;;;3.31;65.90;102629.47;4949279;28;20406;-77
2022/01/12 10:46:47;;;;;;;11.90;9.93;;;;;;;3.25;65.87;102635.41;4950095;28;20410;-77
2022/01/12 10:49:19;;;;;;;14.63;10.85;;;;;;;3.25;65.83;102633.59;4943141;28;20442;-77
2022/01/12 10:51:54;;;;;;;13.25;10.65;;;;;;;3.26;66.13;102635.25;4953019;28;20432;-77
2022/01/12 10:54:19;;;;;;;13.15;10.43;;;;;;;3.27;65.92;102631.59;4955935;29;20496;-77
2022/01/12 10:56:44;;;;;;;11.97;10.63;;;;;;;3.19;66.10;102604.69;4956031;28;20968;-77
2022/01/12 10:59:16;;;;;;;11.00;9.80;;;;;;;3.15;66.48;102603.28;4953180;28;20413;-78
2022/01/12 11:01:41;;;;;;;11.00;9.90;;;;;;;3.07;66.33;102604.00;4944593;28;20440;-77
2022/01/12 11:04:07;;;;;;;15.03;10.20;;;;;;;3.02;67.04;102600.91;4951628;28;20462;-76
2022/01/12 11:06:33;;;;;;;10.50;9.40;;;;;;;3.01;66.98;102590.34;4956058;29;20402;-76
2022/01/12 11:08:59;;;;;;;9.57;8.33;;;;;;;3.01;66.47;102595.69;4955697;28;20462;-77
2022/01/12 11:11:26;;;;;;;9.65;8.63;;;;;;;3.05;66.45;102586.38;4955811;28;20401;-77
2022/01/12 11:13:52;;;;;;;11.15;9.85;;;;;;;3.05;66.01;102584.56;4945268;28;20409;-76
2022/01/12 11:16:22;;;;;;;10.57;9.50;;;;;;;3.11;66.44;102591.16;4955028;29;20432;-76
2022/01/12 11:18:49;;;;;;;9.18;8.27;;;;;;;3.06;65.69;102588.09;4953651;29;20405;-77
2022/01/12 11:21:21;;;;;;;9.20;7.88;;;;;;;3.06;65.58;102588.91;4941482;29;20927;-76
2022/01/12 11:23:47;;;;;;;8.75;7.88;;;;;;;3.04;65.14;102576.66;4952212;28;20434;-76
2022/01/12 11:26:23;;;;;;;8.15;7.30;;;;;;;3.04;64.69;102573.97;4955319;29;20394;-76
2022/01/12 11:28:51;;;;;;;9.77;8.80;;;;;;;3.12;65.00;102564.25;4946212;28;20437;-77
2022/01/12 11:31:26;;;;;;;10.53;8.30;;;;;;;3.12;65.12;102561.56;4951784;29;20400;-76
2022/01/12 11:33:51;;;;;;;9.33;8.33;;;;;;;3.14;64.84;102564.94;4944625;29;20394;-77
2022/01/12 11:36:24;;;;;;;8.03;7.13;;;;;;;3.16;64.97;102572.84;4955385;29;20913;-77
2022/01/12 11:38:58;;;;;;;9.02;7.35;;;;;;;3.13;64.13;102557.88;4954691;28;20432;-77
2022/01/12 11:41:26;;;;;;;7.45;6.70;;;;;;;3.21;64.14;102550.94;4950768;29;20769;-76
2022/01/12 11:43:58;;;;;;;9.18;8.30;;;;;;;3.24;64.23;102556.84;4954384;28;20429;-77
2022/01/12 11:46:26;;;;;;;8.93;8.00;;;;;;;3.22;64.53;102552.66;4951245;28;20406;-76
2022/01/12 11:48:57;;;;;;;9.45;8.38;;;;;;;3.20;64.62;102550.09;4955188;28;20962;-77
2022/01/12 11:51:40;;;;;;;11.50;7.93;;;;;;;3.26;64.51;102546.00;4955566;29;20398;-77
2022/01/12 11:54:09;;;;;;;8.40;7.57;;;;;;;3.23;64.38;102551.66;4955238;29;20394;-76
2022/01/12 11:56:35;;;;;;;8.27;7.38;;;;;;;3.18;63.76;102546.72;4955225;29;20477;-77
2022/01/12 11:59:12;;;;;;;8.13;7.25;;;;;;;3.18;64.32;102541.38;4943840;28;20843;-77
2022/01/12 12:01:43;;;;;;;8.10;7.25;;;;;;;3.21;63.90;102543.75;4954608;29;20461;-77
2022/01/12 12:04:09;;;;;;;8.80;7.80;;;;;;;3.25;64.35;102547.84;4955212;29;20497;-76
2022/01/12 12:06:35;;;;;;;9.63;7.88;;;;;;;3.27;63.85;102547.69;4955920;28;20419;-77
2022/01/12 12:09:05;;;;;;;8.77;7.87;;;;;;;3.23;64.00;102555.16;4936760;29;20987;-76
2022/01/12 12:11:31;;;;;;;8.13;7.32;;;;;;;3.26;63.91;102552.19;4954628;28;20410;-77
2022/01/12 12:14:07;;;;;;;11.87;7.57;;;;;;;3.26;64.41;102552.19;4954788;29;20440;-77
2022/01/12 12:16:37;;;;;;;9.30;8.40;;;;;;;3.26;64.17;102551.38;4953454;28;20495;-77
2022/01/12 12:19:04;;;;;;;11.05;8.48;;;;;;;3.29;64.20;102557.28;4948437;28;20423;-77
2022/01/12 12:21:34;;;;;;;11.25;9.23;;;;;;;3.34;64.48;102562.19;4950037;29;20482;-76
2022/01/12 12:24:11;;;;;;;9.25;8.13;;;;;;;3.33;63.72;102560.47;4952425;28;20774;-77
2022/01/12 12:26:44;;;;;;;11.65;9.75;;;;;;;3.32;64.53;102561.50;4954725;29;20485;-77
2022/01/12 12:29:10;;;;;;;8.48;7.57;;;;;;;3.32;63.82;102561.50;4953050;28;20406;-76
2022/01/12 12:31:35;;;;;;;10.97;7.93;;;;;;;3.32;63.56;102556.97;4948472;29;20433;-78
2022/01/12 12:34:05;;;;;;;8.83;7.67;;;;;;;3.29;63.56;102554.59;4952357;28;20769;-76
2022/01/12 12:36:32;;;;;;;10.50;8.13;;;;;;;3.32;63.50;102548.09;4953760;28;20421;-78
2022/01/12 12:39:09;;;;;;;9.53;8.33;;;;;;;3.31;63.91;102551.75;4953666;29;20492;-77
2022/01/12 12:41:36;;;;;;;10.60;7.55;;;;;;;3.29;64.13;102537.69;4953885;28;20401;-77